createdAt,value
2022-08-08T00:01:52.541Z,18.89
2022-08-08T00:05:09.830Z,18.69
2022-08-08T00:08:36.796Z,18.79
2022-08-08T00:12:10.092Z,18.78
2022-08-08T00:15:24.344Z,18.80
2022-08-08T00:18:36.646Z,18.87
2022-08-08T00:21:30.897Z,17.83
2022-08-08T00:24:35.122Z,18.90
2022-08-08T00:27:22.273Z,18.79
2022-08-08T00:30:15.567Z,18.77
2022-08-08T00:33:09.378Z,18.16
2022-08-08T00:36:34.959Z,18.97
2022-08-08T00:41:07.125Z,17.90
2022-08-08T00:43:21.725Z,18.97
2022-08-08T00:46:32.243Z,18.98
2022-08-08T00:49:59.005Z,18.98
2022-08-08T00:53:06.870Z,18.98
2022-08-08T00:56:41.780Z,18.98
2022-08-08T00:59:46.606Z,18.93
2022-08-08T01:03:59.768Z,18.89
2022-08-08T01:06:43.207Z,18.82
2022-08-08T01:10:06.023Z,18.80
2022-08-08T01:13:43.586Z,18.75
2022-08-08T01:16:37.421Z,18.76
2022-08-08T01:20:02.073Z,18.82
2022-08-08T01:24:03.238Z,18.80
2022-08-08T01:26:39.048Z,17.88
2022-08-08T01:30:11.910Z,18.73
2022-08-08T01:33:42.884Z,18.02
2022-08-08T01:36:38.211Z,18.67
2022-08-08T01:39:47.404Z,17.61
2022-08-08T01:42:51.353Z,18.59
2022-08-08T01:46:01.068Z,17.55
2022-08-08T01:49:14.159Z,18.57
2022-08-08T01:53:14.355Z,18.51
2022-08-08T01:56:28.200Z,17.54
2022-08-08T02:00:02.826Z,18.33
2022-08-08T02:03:56.945Z,18.25
2022-08-08T02:06:43.430Z,17.20
2022-08-08T02:10:03.881Z,18.12
2022-08-08T02:13:53.942Z,17.90
2022-08-08T02:17:03.799Z,18.04
2022-08-08T02:21:01.509Z,17.98
2022-08-08T02:23:42.125Z,17.93
2022-08-08T02:26:34.709Z,17.91
2022-08-08T02:29:47.015Z,17.78
2022-08-08T02:33:10.340Z,17.26
2022-08-08T02:36:23.747Z,17.58
2022-08-08T02:39:59.616Z,17.47
2022-08-08T02:44:42.716Z,17.39
2022-08-08T02:46:24.355Z,16.27
2022-08-08T02:49:51.017Z,17.37
2022-08-08T02:53:00.406Z,17.39
2022-08-08T02:56:03.355Z,17.34
2022-08-08T02:59:36.909Z,17.45
2022-08-08T03:03:17.365Z,17.45
2022-08-08T03:06:41.707Z,17.73
2022-08-08T03:09:57.934Z,17.78
2022-08-08T03:13:34.191Z,17.83
2022-08-08T03:16:40.071Z,16.80
2022-08-08T03:20:10.345Z,17.83
2022-08-08T03:23:04.657Z,17.73
2022-08-08T03:25:52.664Z,17.66
2022-08-08T03:28:46.264Z,17.64
2022-08-08T03:32:06.765Z,17.56
2022-08-08T03:34:54.356Z,16.76
2022-08-08T03:38:54.722Z,17.08
2022-08-08T03:40:52.428Z,17.32
2022-08-08T03:43:40.587Z,17.26
2022-08-08T03:46:32.407Z,17.16
2022-08-08T03:49:58.024Z,17.14
2022-08-08T03:52:34.100Z,17.09
2022-08-08T03:55:56.267Z,17.08
2022-08-08T03:58:37.736Z,17.09
2022-08-08T04:02:12.539Z,16.99
2022-08-08T04:04:48.824Z,16.84
2022-08-08T04:07:41.830Z,17.09
2022-08-08T04:10:32.390Z,17.08
2022-08-08T04:13:21.304Z,16.66
2022-08-08T04:16:12.042Z,17.07
2022-08-08T04:19:02.033Z,17.06
2022-08-08T04:21:48.989Z,17.12
2022-08-08T04:24:35.462Z,17.23
2022-08-08T04:28:01.544Z,17.13
2022-08-08T04:30:39.830Z,17.38
2022-08-08T04:33:29.864Z,17.38
2022-08-08T04:36:28.455Z,16.53
2022-08-08T04:40:05.418Z,17.48
2022-08-08T04:42:26.108Z,17.56
2022-08-08T04:45:12.231Z,17.61
2022-08-08T04:48:00.898Z,17.24
2022-08-08T04:50:50.898Z,17.61
2022-08-08T04:54:27.144Z,17.85
2022-08-08T04:56:48.144Z,17.94
2022-08-08T04:59:41.938Z,17.51
2022-08-08T05:02:31.034Z,17.83
2022-08-08T05:05:20.105Z,18.01
2022-08-08T05:08:07.097Z,18.11
2022-08-08T05:11:00.398Z,18.18
2022-08-08T05:13:57.516Z,17.26
2022-08-08T05:16:54.290Z,17.78
2022-08-08T05:20:10.733Z,18.36
2022-08-08T05:22:57.895Z,18.30
2022-08-08T05:25:49.964Z,18.25
2022-08-08T05:28:55.837Z,18.33
2022-08-08T05:32:04.356Z,18.62
2022-08-08T05:34:50.911Z,18.39
2022-08-08T05:37:54.472Z,18.66
2022-08-08T05:40:57.877Z,18.66
2022-08-08T05:44:03.852Z,18.90
2022-08-08T05:46:53.686Z,18.93
2022-08-08T05:49:55.781Z,18.99
2022-08-08T05:52:45.505Z,19.04
2022-08-08T05:56:10.410Z,19.00
2022-08-08T05:58:56.756Z,19.10
2022-08-08T06:01:57.835Z,19.17
2022-08-08T06:04:55.164Z,19.11
2022-08-08T06:07:47.633Z,19.00
2022-08-08T06:10:38.522Z,18.87
2022-08-08T06:13:36.513Z,19.31
2022-08-08T06:16:42.183Z,17.86
2022-08-08T06:19:56.627Z,19.43
2022-08-08T06:22:43.705Z,18.46
2022-08-08T06:26:38.982Z,19.37
2022-08-08T06:28:49.100Z,19.65
2022-08-08T06:32:09.301Z,19.74
2022-08-08T06:35:11.997Z,19.12
2022-08-08T06:38:14.140Z,19.87
2022-08-08T06:41:13.522Z,19.58
2022-08-08T06:44:04.399Z,19.75
2022-08-08T06:46:55.207Z,20.03
2022-08-08T06:49:55.144Z,20.01
2022-08-08T06:52:43.994Z,20.02
2022-08-08T06:55:41.861Z,20.03
2022-08-08T06:58:30.924Z,19.52
2022-08-08T07:02:17.682Z,19.75
2022-08-08T07:04:52.357Z,20.00
2022-08-08T07:07:53.255Z,20.00
2022-08-08T07:10:50.067Z,19.95
2022-08-08T07:14:00.868Z,20.07
2022-08-08T07:17:09.494Z,19.87
2022-08-08T07:20:06.041Z,19.46
2022-08-08T07:23:23.567Z,20.15
2022-08-08T07:26:17.727Z,20.16
2022-08-08T07:29:58.856Z,20.26
2022-08-08T07:32:26.570Z,20.23
2022-08-08T07:35:15.601Z,18.44
2022-08-08T07:38:20.476Z,20.44
2022-08-08T07:41:24.852Z,19.82
2022-08-08T07:44:37.895Z,20.71
2022-08-08T07:47:38.315Z,20.82
2022-08-08T07:50:28.666Z,20.91
2022-08-08T07:54:00.996Z,20.86
2022-08-08T07:56:41.326Z,20.04
2022-08-08T07:59:37.792Z,21.12
2022-08-08T08:02:38.922Z,21.19
2022-08-08T08:05:32.977Z,21.27
2022-08-08T08:08:30.875Z,20.38
2022-08-08T08:11:23.672Z,21.35
2022-08-08T08:14:58.853Z,21.41
2022-08-08T08:17:55.719Z,21.62
2022-08-08T08:20:43.384Z,21.70
2022-08-08T08:23:29.967Z,21.00
2022-08-08T08:26:29.509Z,21.91
2022-08-08T08:29:19.317Z,21.97
2022-08-08T08:32:08.919Z,21.94
2022-08-08T08:34:57.909Z,22.01
2022-08-08T08:38:13.189Z,21.52
2022-08-08T08:40:52.201Z,21.80
2022-08-08T08:43:42.605Z,21.98
2022-08-08T08:46:35.809Z,21.98
2022-08-08T08:49:30.707Z,21.91
2022-08-08T08:52:22.348Z,21.82
2022-08-08T08:55:20.187Z,21.98
2022-08-08T08:58:09.766Z,21.78
2022-08-08T09:01:09.236Z,22.04
2022-08-08T09:04:01.510Z,22.22
2022-08-08T09:06:53.780Z,22.27
2022-08-08T09:09:47.653Z,22.33
2022-08-08T09:12:45.515Z,22.40
2022-08-08T09:15:41.024Z,22.44
2022-08-08T09:18:31.695Z,22.49
2022-08-08T09:21:56.298Z,22.54
2022-08-08T09:24:27.217Z,22.34
2022-08-08T09:27:20.093Z,21.64
2022-08-08T09:30:22.222Z,22.63
2022-08-08T09:33:54.476Z,22.75
2022-08-08T09:36:23.211Z,22.78
2022-08-08T09:39:19.079Z,22.04
2022-08-08T09:42:20.858Z,22.87
2022-08-08T09:45:54.187Z,22.35
2022-08-08T09:48:36.335Z,22.86
2022-08-08T09:51:41.418Z,22.16
2022-08-08T09:54:45.747Z,22.01
2022-08-08T09:57:45.732Z,22.79
2022-08-08T10:00:53.376Z,23.04
2022-08-08T10:03:55.801Z,23.08
2022-08-08T10:06:45.088Z,23.14
2022-08-08T10:09:35.861Z,23.23
2022-08-08T10:12:54.245Z,23.06
2022-08-08T10:15:59.363Z,23.47
2022-08-08T10:18:47.805Z,23.39
2022-08-08T10:21:45.578Z,23.14
2022-08-08T10:24:47.320Z,22.79
2022-08-08T10:27:42.897Z,23.05
2022-08-08T10:30:59.716Z,23.78
2022-08-08T10:33:38.357Z,22.92
2022-08-08T10:36:42.749Z,23.84
2022-08-08T10:39:31.720Z,23.87
2022-08-08T10:42:34.911Z,23.52
2022-08-08T10:45:24.325Z,23.91
2022-08-08T10:48:14.737Z,23.91
2022-08-08T10:51:11.823Z,23.06
2022-08-08T10:54:01.921Z,23.95
2022-08-08T10:56:57.746Z,23.97
2022-08-08T10:59:45.544Z,23.56
2022-08-08T11:02:34.609Z,23.98
2022-08-08T11:05:22.964Z,23.83
2022-08-08T11:08:31.885Z,23.93
2022-08-08T11:11:32.392Z,23.83
2022-08-08T11:14:32.971Z,23.64
2022-08-08T11:17:59.361Z,22.87
2022-08-08T11:20:30.392Z,23.47
2022-08-08T11:23:21.409Z,23.73
2022-08-08T11:26:07.911Z,23.65
2022-08-08T11:28:56.959Z,23.55
2022-08-08T11:31:48.865Z,23.29
2022-08-08T11:34:52.564Z,23.45
2022-08-08T11:38:36.888Z,23.37
2022-08-08T11:40:52.983Z,23.41
2022-08-08T11:43:41.907Z,23.13
2022-08-08T11:46:30.560Z,23.37
2022-08-08T11:49:19.706Z,23.59
2022-08-08T11:52:18.405Z,23.63
2022-08-08T11:55:20.446Z,23.66
2022-08-08T11:58:15.047Z,23.69
2022-08-08T12:01:16.229Z,23.17
2022-08-08T12:04:04.700Z,23.72
2022-08-08T12:07:03.919Z,23.71
2022-08-08T12:10:00.490Z,23.72
2022-08-08T12:13:00.992Z,23.64
2022-08-08T12:15:49.979Z,23.47
2022-08-08T12:18:46.466Z,23.78
2022-08-08T12:22:00.234Z,23.30
2022-08-08T12:24:54.011Z,23.68
2022-08-08T12:27:43.309Z,23.89
2022-08-08T12:30:31.892Z,23.87
2022-08-08T12:33:37.756Z,23.86
2022-08-08T12:36:46.500Z,23.77
2022-08-08T12:40:00.256Z,23.77
2022-08-08T12:42:49.417Z,23.76
2022-08-08T12:45:59.408Z,23.78
2022-08-08T12:49:25.398Z,23.75
2022-08-08T12:52:28.303Z,23.84
2022-08-08T12:55:29.355Z,23.87
2022-08-08T12:58:20.933Z,23.92
2022-08-08T13:01:13.655Z,23.80
2022-08-08T13:04:01.330Z,23.52
2022-08-08T13:06:55.803Z,23.95
2022-08-08T13:10:04.350Z,23.91
2022-08-08T13:12:53.197Z,23.92
2022-08-08T13:15:43.504Z,23.92
2022-08-08T13:18:57.301Z,23.95
2022-08-08T13:22:04.806Z,23.73
2022-08-08T13:24:52.728Z,23.90
2022-08-08T13:27:39.356Z,23.79
2022-08-08T13:30:28.139Z,23.60
2022-08-08T13:33:19.591Z,23.77
2022-08-08T13:36:08.451Z,23.37
2022-08-08T13:38:59.512Z,23.69
2022-08-08T13:41:52.777Z,23.56
2022-08-08T13:44:41.435Z,23.78
2022-08-08T13:47:32.540Z,23.59
2022-08-08T13:50:37.890Z,21.38
2022-08-08T13:53:34.230Z,23.82
2022-08-08T13:56:44.535Z,23.72
2022-08-08T13:59:48.470Z,22.82
2022-08-08T14:02:48.084Z,23.75
2022-08-08T14:05:35.051Z,22.80
2022-08-08T14:08:30.346Z,23.71
2022-08-08T14:11:24.206Z,23.66
2022-08-08T14:14:11.690Z,23.62
2022-08-08T14:17:02.473Z,23.57
2022-08-08T14:19:57.931Z,23.50
2022-08-08T14:22:52.522Z,23.49
2022-08-08T14:25:44.929Z,23.53
2022-08-08T14:28:31.139Z,23.53
2022-08-08T14:31:36.678Z,23.55
2022-08-08T14:34:32.872Z,23.42
2022-08-08T14:37:20.751Z,23.33
2022-08-08T14:40:23.931Z,23.53
2022-08-08T14:43:31.698Z,23.45
2022-08-08T14:46:30.899Z,23.41
2022-08-08T14:49:20.743Z,23.26
2022-08-08T14:52:21.125Z,23.35
2022-08-08T14:55:08.612Z,23.32
2022-08-08T14:58:03.562Z,22.75
2022-08-08T15:00:58.436Z,23.27
2022-08-08T15:03:53.301Z,22.84
2022-08-08T15:06:42.633Z,23.34
2022-08-08T15:09:30.367Z,23.33
2022-08-08T15:12:16.198Z,23.35
2022-08-08T15:15:18.778Z,22.44
2022-08-08T15:18:20.604Z,23.14
2022-08-08T15:21:08.669Z,23.30
2022-08-08T15:23:55.021Z,22.93
2022-08-08T15:26:41.695Z,23.16
2022-08-08T15:29:27.238Z,23.16
2022-08-08T15:32:20.540Z,22.96
2022-08-08T15:35:09.219Z,23.05
2022-08-08T15:37:55.048Z,23.02
2022-08-08T15:40:44.384Z,22.77
2022-08-08T15:43:36.373Z,22.93
2022-08-08T15:46:26.711Z,22.95
2022-08-08T15:49:21.254Z,22.61
2022-08-08T15:52:13.095Z,22.22
2022-08-08T15:54:58.780Z,22.61
2022-08-08T15:57:44.866Z,22.94
2022-08-08T16:00:31.222Z,22.84
2022-08-08T16:03:16.585Z,22.95
2022-08-08T16:06:03.156Z,22.94
2022-08-08T16:13:00.303Z,22.90
2022-08-08T16:13:05.151Z,22.93
2022-08-08T16:15:01.205Z,21.88
2022-08-08T16:17:47.434Z,22.86
2022-08-08T16:20:52.695Z,22.89
2022-08-08T16:23:38.602Z,22.90
2022-08-08T16:26:33.013Z,22.65
2022-08-08T16:29:23.771Z,22.85
2022-08-08T16:32:27.673Z,22.89
2022-08-08T16:35:14.256Z,22.85
2022-08-08T16:38:05.746Z,21.81
2022-08-08T16:40:53.351Z,22.77
2022-08-08T16:43:48.796Z,22.56
2022-08-08T16:46:46.254Z,22.23
2022-08-08T16:49:36.175Z,22.74
2022-08-08T16:55:03.024Z,21.95
2022-08-08T16:55:52.348Z,21.63
2022-08-08T16:58:37.365Z,22.61
2022-08-08T17:01:26.942Z,22.49
2022-08-08T17:04:21.916Z,22.43
2022-08-08T17:07:08.408Z,21.88
2022-08-08T17:09:55.273Z,22.50
2022-08-08T17:12:46.960Z,22.50
2022-08-08T17:15:47.609Z,22.48
2022-08-08T17:18:42.014Z,22.49
2022-08-08T17:21:41.342Z,22.51
2022-08-08T17:24:30.166Z,22.24
2022-08-08T17:27:17.641Z,22.44
2022-08-08T17:30:08.566Z,22.14
2022-08-08T17:34:36.467Z,22.36
2022-08-08T17:36:11.136Z,22.29
2022-08-08T17:39:04.999Z,21.25
2022-08-08T17:41:58.607Z,22.19
2022-08-08T17:44:51.105Z,21.90
2022-08-08T17:47:40.379Z,21.99
2022-08-08T17:50:26.768Z,21.05
2022-08-08T17:53:12.681Z,21.91
2022-08-08T17:56:05.690Z,21.93
2022-08-08T17:58:54.015Z,21.90
2022-08-08T18:01:54.015Z,21.91
2022-08-08T18:04:50.848Z,21.45
2022-08-08T18:08:03.284Z,21.90
2022-08-08T18:10:43.625Z,21.93
2022-08-08T18:13:29.536Z,21.65
2022-08-08T18:16:23.548Z,21.44
2022-08-08T18:19:11.095Z,20.95
2022-08-08T18:21:59.839Z,21.88
2022-08-08T18:24:49.419Z,21.69
2022-08-08T18:27:38.151Z,21.91
2022-08-08T18:30:25.116Z,21.92
2022-08-08T18:33:36.551Z,21.91
2022-08-08T18:36:23.417Z,21.87
2022-08-08T18:39:11.423Z,21.07
2022-08-08T18:42:16.487Z,21.81
2022-08-08T18:45:09.148Z,21.71
2022-08-08T18:48:11.940Z,20.80
2022-08-08T18:51:07.379Z,21.47
2022-08-08T18:54:10.930Z,20.38
2022-08-08T18:56:59.579Z,21.37
2022-08-08T18:59:44.886Z,21.34
2022-08-08T19:02:35.880Z,21.33
2022-08-08T19:05:24.085Z,21.06
2022-08-08T19:08:29.346Z,21.30
2022-08-08T19:11:22.363Z,20.33
2022-08-08T19:14:10.130Z,21.29
2022-08-08T19:16:58.598Z,21.30
2022-08-08T19:20:02.995Z,21.13
2022-08-08T19:22:52.013Z,21.42
2022-08-08T19:26:28.479Z,21.24
2022-08-08T19:28:46.570Z,21.41
2022-08-08T19:31:36.566Z,20.40
2022-08-08T19:34:35.575Z,21.29
2022-08-08T19:37:43.050Z,21.21
2022-08-08T19:40:32.861Z,21.13
2022-08-08T19:43:18.824Z,21.02
2022-08-08T19:46:09.989Z,21.01
2022-08-08T19:49:00.463Z,20.13
2022-08-08T19:51:45.947Z,20.98
2022-08-08T19:54:35.301Z,21.05
2022-08-08T19:57:25.045Z,20.89
2022-08-08T20:00:30.282Z,20.58
2022-08-08T20:04:00.476Z,20.67
2022-08-08T20:06:23.769Z,20.49
2022-08-08T20:09:09.592Z,20.42
2022-08-08T20:11:54.924Z,20.90
2022-08-08T20:14:41.820Z,20.08
2022-08-08T20:17:27.936Z,20.96
2022-08-08T20:20:19.584Z,20.93
2022-08-08T20:23:12.440Z,19.99
2022-08-08T20:26:01.540Z,20.98
2022-08-08T20:28:50.986Z,20.61
2022-08-08T20:32:02.580Z,21.06
2022-08-08T20:34:47.431Z,20.92
2022-08-08T20:37:46.671Z,21.09
2022-08-08T20:40:40.985Z,20.38
2022-08-08T20:43:43.427Z,20.10
2022-08-08T20:46:33.429Z,20.29
2022-08-08T20:49:19.917Z,20.88
2022-08-08T20:52:08.406Z,20.77
2022-08-08T20:54:55.535Z,20.41
2022-08-08T20:57:43.684Z,19.70
2022-08-08T21:00:41.282Z,20.66
2022-08-08T21:03:29.942Z,20.61
2022-08-08T21:06:19.537Z,20.33
2022-08-08T21:09:31.772Z,19.65
2022-08-08T21:12:37.801Z,20.47
2022-08-08T21:16:05.121Z,20.35
2022-08-08T21:18:32.750Z,20.17
2022-08-08T21:21:20.562Z,19.97
2022-08-08T21:24:30.329Z,20.02
2022-08-08T21:28:05.131Z,20.37
2022-08-08T21:30:24.567Z,20.35
2022-08-08T21:33:11.609Z,20.42
2022-08-08T21:36:18.573Z,20.45
2022-08-08T21:39:06.326Z,20.29
2022-08-08T21:41:59.157Z,19.64
2022-08-08T21:44:59.134Z,20.44
2022-08-08T21:48:05.107Z,20.47
2022-08-08T21:50:52.876Z,20.06
2022-08-08T21:54:31.917Z,20.49
2022-08-08T21:56:46.319Z,19.36
2022-08-08T22:00:01.641Z,20.14
2022-08-08T22:02:37.609Z,20.25
2022-08-08T22:05:23.559Z,18.75
2022-08-08T22:08:09.451Z,20.03
2022-08-08T22:10:56.257Z,18.95
2022-08-08T22:13:47.647Z,19.85
2022-08-08T22:16:36.888Z,18.97
2022-08-08T22:19:23.789Z,19.67
2022-08-08T22:22:09.737Z,19.91
2022-08-08T22:24:58.514Z,19.91
2022-08-08T22:28:03.689Z,19.15
2022-08-08T22:30:52.906Z,18.59
2022-08-08T22:34:12.797Z,19.98
2022-08-08T22:36:47.278Z,20.05
2022-08-08T22:39:46.025Z,20.06
2022-08-08T22:42:40.425Z,19.61
2022-08-08T22:45:27.045Z,19.44
2022-08-08T22:48:12.684Z,20.03
2022-08-08T22:50:59.508Z,19.86
2022-08-08T22:54:31.160Z,19.15
2022-08-08T22:56:57.908Z,20.16
2022-08-08T22:59:48.512Z,20.03
2022-08-08T23:02:50.227Z,19.34
2022-08-08T23:05:38.627Z,19.09
2022-08-08T23:08:35.776Z,20.07
2022-08-08T23:12:28.339Z,19.64
2022-08-08T23:14:37.049Z,19.75
2022-08-08T23:17:22.955Z,18.99
2022-08-08T23:20:16.039Z,19.98
2022-08-08T23:23:05.381Z,18.95
2022-08-08T23:25:52.344Z,19.75
2022-08-08T23:28:37.843Z,19.63
2022-08-08T23:31:23.116Z,19.62
2022-08-08T23:34:16.391Z,18.56
2022-08-08T23:37:04.775Z,19.31
2022-08-08T23:39:55.346Z,18.98
2022-08-08T23:42:45.228Z,18.88
2022-08-08T23:49:01.959Z,19.37
2022-08-08T23:49:07.771Z,19.35
2022-08-08T23:52:06.770Z,19.21
2022-08-08T23:55:00.004Z,19.48
2022-08-08T23:57:53.581Z,19.36
